createdAt,value
2019-02-22T00:01:38.578Z,97.93
2019-02-22T00:05:41.874Z,86.00
2019-02-22T00:09:49.392Z,103.27
2019-02-22T00:13:51.194Z,94.23
2019-02-22T00:17:54.664Z,97.87
2019-02-22T00:21:58.008Z,125.07
2019-02-22T00:26:01.349Z,101.47
2019-02-22T00:30:04.861Z,101.43
2019-02-22T00:34:08.281Z,127.57
2019-02-22T00:38:11.734Z,96.70
2019-02-22T00:42:15.214Z,108.40
2019-02-22T00:46:18.566Z,92.60
2019-02-22T00:50:21.924Z,106.90
2019-02-22T00:54:25.302Z,147.43
2019-02-22T00:58:29.491Z,117.87
2019-02-22T01:02:33.377Z,94.50
2019-02-22T01:06:36.751Z,114.73
2019-02-22T01:10:40.077Z,106.87
2019-02-22T01:14:44.290Z,94.60
2019-02-22T01:18:47.731Z,143.47
2019-02-22T01:22:51.043Z,90.53
2019-02-22T01:26:54.386Z,118.83
2019-02-22T01:30:57.724Z,172.23
2019-02-22T01:35:01.083Z,90.50
2019-02-22T01:39:05.741Z,136.03
2019-02-22T01:43:09.112Z,141.87
2019-02-22T01:47:12.455Z,110.83
2019-02-22T01:51:16.319Z,125.83
2019-02-22T01:55:20.137Z,124.93
2019-02-22T01:59:23.894Z,128.37
2019-02-22T02:03:27.262Z,162.53
2019-02-22T02:07:31.091Z,104.87
2019-02-22T02:11:34.564Z,145.23
2019-02-22T02:15:38.435Z,169.23
2019-02-22T02:19:41.786Z,126.33
2019-02-22T02:23:45.251Z,118.20
2019-02-22T02:27:48.621Z,171.03
2019-02-22T02:31:51.987Z,142.30
2019-02-22T02:35:55.895Z,188.87
2019-02-22T02:39:59.702Z,179.63
2019-02-22T02:44:03.344Z,151.83
2019-02-22T02:48:06.796Z,143.53
2019-02-22T02:52:10.976Z,141.30
2019-02-22T02:56:14.356Z,157.40
2019-02-22T03:00:17.759Z,109.57
2019-02-22T03:04:21.126Z,148.17
2019-02-22T03:08:28.189Z,149.60
2019-02-22T03:12:31.624Z,119.00
2019-02-22T03:16:35.577Z,128.27
2019-02-22T03:20:39.402Z,173.33
2019-02-22T03:24:42.727Z,101.50
2019-02-22T03:28:46.540Z,94.00
2019-02-22T03:32:49.910Z,90.00
2019-02-22T03:36:53.216Z,131.43
2019-02-22T03:40:57.048Z,198.27
2019-02-22T03:45:00.834Z,134.70
2019-02-22T03:49:04.737Z,124.63
2019-02-22T03:53:17.406Z,107.20
2019-02-22T03:57:21.273Z,151.67
2019-02-22T04:01:24.720Z,136.97
2019-02-22T04:05:28.080Z,90.17
2019-02-22T04:09:32.101Z,170.67
2019-02-22T04:13:35.559Z,127.43
2019-02-22T04:17:38.890Z,186.40
2019-02-22T04:21:42.302Z,224.47
2019-02-22T04:25:46.068Z,158.70
2019-02-22T04:29:49.781Z,118.63
2019-02-22T04:33:53.190Z,170.37
2019-02-22T04:37:57.003Z,125.60
2019-02-22T04:42:00.723Z,128.53
2019-02-22T04:46:04.238Z,220.73
2019-02-22T04:50:08.504Z,147.43
2019-02-22T04:54:12.343Z,93.17
2019-02-22T04:58:15.749Z,191.33
2019-02-22T05:02:19.108Z,295.70
2019-02-22T05:06:22.916Z,277.27
2019-02-22T05:10:26.243Z,283.60
2019-02-22T05:14:29.589Z,129.33
2019-02-22T05:18:32.952Z,204.50
2019-02-22T05:22:36.302Z,110.20
2019-02-22T05:26:39.690Z,133.83
2019-02-22T05:30:43.135Z,96.33
2019-02-22T05:34:46.480Z,104.20
2019-02-22T05:38:49.837Z,163.93
2019-02-22T05:42:53.219Z,219.40
2019-02-22T05:47:00.341Z,221.33
2019-02-22T05:51:01.769Z,96.77
2019-02-22T05:55:05.257Z,135.27
2019-02-22T05:59:08.721Z,135.83
2019-02-22T06:03:12.512Z,84.33
2019-02-22T06:07:15.914Z,93.73
2019-02-22T06:11:19.398Z,121.07
2019-02-22T06:15:23.081Z,120.40
2019-02-22T06:19:26.388Z,115.10
2019-02-22T06:23:30.399Z,93.87
2019-02-22T06:27:34.000Z,102.10
2019-02-22T06:31:37.570Z,84.47
2019-02-22T06:35:40.875Z,100.03
2019-02-22T06:39:44.170Z,133.00
2019-02-22T06:43:48.049Z,83.43
2019-02-22T06:47:51.442Z,99.93
2019-02-22T06:51:54.730Z,98.07
2019-02-22T06:55:58.038Z,95.57
2019-02-22T07:00:01.339Z,80.93
2019-02-22T07:04:04.701Z,85.13
2019-02-22T07:08:08.011Z,125.70
2019-02-22T07:12:15.587Z,79.77
2019-02-22T07:16:18.882Z,82.93
2019-02-22T07:20:22.170Z,71.83
2019-02-22T07:24:25.458Z,68.07
2019-02-22T07:28:28.754Z,67.23
2019-02-22T07:32:32.496Z,91.90
2019-02-22T07:36:35.790Z,66.93
2019-02-22T07:40:39.582Z,70.00
2019-02-22T07:44:43.302Z,71.27
2019-02-22T07:48:46.634Z,68.07
2019-02-22T07:52:49.941Z,81.07
2019-02-22T07:56:53.229Z,72.73
2019-02-22T08:00:56.535Z,66.93
2019-02-22T08:04:59.826Z,67.43
2019-02-22T08:09:04.899Z,68.80
2019-02-22T08:13:19.247Z,67.13
2019-02-22T08:17:14.675Z,69.73
2019-02-22T08:21:18.267Z,63.30
2019-02-22T08:25:22.034Z,243.30
2019-02-22T08:29:25.318Z,59.67
2019-02-22T08:33:28.623Z,49.43
2019-02-22T08:37:32.617Z,58.00
2019-02-22T08:41:36.378Z,45.73
2019-02-22T08:45:39.923Z,45.00
2019-02-22T08:49:43.242Z,47.67
2019-02-22T08:53:46.714Z,43.00
2019-02-22T08:57:50.374Z,39.23
2019-02-22T09:01:53.811Z,37.40
2019-02-22T09:05:57.807Z,32.90
2019-02-22T09:10:01.888Z,36.40
2019-02-22T09:14:05.175Z,36.90
2019-02-22T09:18:08.527Z,31.93
2019-02-22T09:22:22.234Z,32.50
2019-02-22T09:26:17.550Z,35.07
2019-02-22T09:30:20.822Z,37.27
2019-02-22T09:34:24.123Z,31.33
2019-02-22T09:38:27.410Z,33.10
2019-02-22T09:42:31.495Z,30.57
2019-02-22T09:46:35.219Z,36.80
2019-02-22T09:50:38.602Z,66.13
2019-02-22T09:54:42.251Z,34.63
2019-02-22T09:58:46.286Z,27.30
2019-02-22T10:02:49.578Z,31.27
2019-02-22T10:06:52.886Z,32.17
2019-02-22T10:10:56.617Z,26.90
2019-02-22T10:14:59.947Z,28.47
2019-02-22T10:19:03.240Z,28.73
2019-02-22T10:23:06.553Z,27.43
2019-02-22T10:27:12.036Z,21.30
2019-02-22T10:31:15.639Z,22.90
2019-02-22T10:35:18.926Z,22.90
2019-02-22T10:39:22.230Z,19.43
2019-02-22T10:43:25.959Z,19.10
2019-02-22T10:47:29.267Z,16.50
2019-02-22T10:51:34.216Z,17.13
2019-02-22T10:55:37.654Z,14.17
2019-02-22T10:59:40.954Z,18.90
2019-02-22T11:03:44.478Z,18.10
2019-02-22T11:07:48.494Z,10.93
2019-02-22T11:11:52.108Z,10.73
2019-02-22T11:15:55.723Z,14.33
2019-02-22T11:19:59.027Z,17.97
2019-02-22T11:24:02.598Z,18.93
2019-02-22T11:28:05.892Z,21.00
2019-02-22T11:32:09.196Z,23.60
2019-02-22T11:36:12.486Z,17.30
2019-02-22T11:40:15.823Z,19.83
2019-02-22T11:44:19.095Z,12.07
2019-02-22T11:48:22.397Z,13.30
2019-02-22T11:52:26.218Z,14.80
2019-02-22T11:56:29.774Z,13.40
2019-02-22T12:00:33.970Z,13.90
2019-02-22T12:04:37.695Z,9.03
2019-02-22T12:08:41.686Z,5.93
2019-02-22T12:12:44.974Z,5.47
2019-02-22T12:16:48.253Z,7.30
2019-02-22T12:20:51.546Z,7.03
2019-02-22T12:24:54.830Z,7.43
2019-02-22T12:28:58.138Z,7.30
2019-02-22T12:33:01.439Z,8.00
2019-02-22T12:37:04.890Z,9.43
2019-02-22T12:41:08.698Z,7.27
2019-02-22T12:45:12.054Z,7.57
2019-02-22T12:49:15.791Z,6.20
2019-02-22T12:53:19.542Z,6.77
2019-02-22T12:57:22.838Z,8.37
2019-02-22T13:01:26.558Z,8.80
2019-02-22T13:05:30.810Z,8.63
2019-02-22T13:09:36.962Z,8.27
2019-02-22T13:13:40.011Z,6.27
2019-02-22T13:17:43.318Z,14.90
2019-02-22T13:21:46.622Z,12.37
2019-02-22T13:25:50.338Z,5.00
2019-02-22T13:29:53.659Z,9.10
2019-02-22T13:33:57.382Z,5.53
2019-02-22T13:38:00.952Z,8.30
2019-02-22T13:42:04.309Z,4.73
2019-02-22T13:46:07.598Z,7.20
2019-02-22T13:50:11.646Z,5.67
2019-02-22T13:54:15.026Z,7.43
2019-02-22T13:58:18.333Z,9.27
2019-02-22T14:02:22.115Z,20.37
2019-02-22T14:06:25.554Z,11.60
2019-02-22T14:10:29.290Z,11.93
2019-02-22T14:14:33.015Z,16.03
2019-02-22T14:18:36.311Z,19.13
2019-02-22T14:22:40.042Z,13.10
2019-02-22T14:26:43.786Z,11.50
2019-02-22T14:30:47.086Z,10.27
2019-02-22T14:34:50.366Z,11.77
2019-02-22T14:38:53.778Z,11.93
2019-02-22T14:42:57.110Z,10.80
2019-02-22T14:47:00.423Z,13.73
2019-02-22T14:51:04.234Z,14.17
2019-02-22T14:55:07.779Z,11.33
2019-02-22T14:59:11.511Z,11.83
2019-02-22T15:03:15.666Z,11.40
2019-02-22T15:07:19.430Z,12.60
2019-02-22T15:11:22.766Z,11.50
2019-02-22T15:15:38.094Z,19.80
2019-02-22T15:19:41.366Z,16.87
2019-02-22T15:23:44.667Z,15.10
2019-02-22T15:27:48.402Z,14.57
2019-02-22T15:31:52.409Z,18.37
2019-02-22T15:35:55.702Z,15.43
2019-02-22T15:39:59.452Z,17.40
2019-02-22T15:44:05.694Z,17.47
2019-02-22T15:48:09.020Z,16.90
2019-02-22T15:52:12.359Z,23.07
2019-02-22T15:56:18.330Z,20.93
2019-02-22T16:00:22.774Z,23.63
2019-02-22T16:05:00.374Z,23.50
2019-02-22T16:09:05.600Z,22.33
2019-02-22T16:13:08.903Z,20.37
2019-02-22T16:17:12.185Z,18.73
2019-02-22T16:21:15.481Z,21.17
2019-02-22T16:25:20.310Z,21.47
2019-02-22T16:29:23.698Z,22.50
2019-02-22T16:33:26.986Z,21.67
2019-02-22T16:37:30.282Z,25.47
2019-02-22T16:41:33.595Z,25.77
2019-02-22T16:45:36.886Z,20.30
2019-02-22T16:49:40.198Z,31.03
2019-02-22T16:53:44.251Z,27.40
2019-02-22T16:57:48.350Z,25.47
2019-02-22T17:01:52.087Z,28.10
2019-02-22T17:05:55.390Z,28.90
2019-02-22T17:09:59.130Z,33.60
2019-02-22T17:14:02.426Z,24.87
2019-02-22T17:18:05.850Z,26.87
2019-02-22T17:22:09.774Z,26.93
2019-02-22T17:26:14.598Z,23.57
2019-02-22T17:30:17.906Z,31.83
2019-02-22T17:34:21.632Z,29.33
2019-02-22T17:38:24.934Z,27.20
2019-02-22T17:42:28.666Z,30.13
2019-02-22T17:46:31.956Z,29.13
2019-02-22T17:50:35.255Z,26.63
2019-02-22T17:54:38.991Z,31.63
2019-02-22T17:58:42.303Z,30.77
2019-02-22T18:02:45.602Z,30.33
2019-02-22T18:06:48.911Z,28.63
2019-02-22T18:10:52.186Z,32.90
2019-02-22T18:14:55.519Z,32.90
2019-02-22T18:18:58.835Z,29.20
2019-02-22T18:23:02.114Z,30.90
2019-02-22T18:27:05.718Z,24.70
2019-02-22T18:31:09.039Z,24.90
2019-02-22T18:35:12.830Z,25.23
2019-02-22T18:39:16.139Z,30.47
2019-02-22T18:43:19.518Z,29.70
2019-02-22T18:47:22.805Z,31.97
2019-02-22T18:51:26.116Z,32.90
2019-02-22T18:55:29.470Z,35.50
2019-02-22T18:59:33.486Z,37.60
2019-02-22T19:03:36.950Z,74.70
2019-02-22T19:07:40.335Z,34.30
2019-02-22T19:11:43.807Z,36.23
2019-02-22T19:15:47.411Z,33.57
2019-02-22T19:19:51.390Z,36.60
2019-02-22T19:23:55.130Z,35.00
2019-02-22T19:27:58.446Z,106.03
2019-02-22T19:32:01.746Z,62.73
2019-02-22T19:36:05.034Z,41.93
2019-02-22T19:40:10.144Z,39.53
2019-02-22T19:44:13.883Z,39.20
2019-02-22T19:48:17.706Z,46.40
2019-02-22T19:52:21.014Z,36.40
2019-02-22T19:56:26.058Z,36.30
2019-02-22T20:00:29.665Z,38.20
2019-02-22T20:04:33.012Z,38.90
2019-02-22T20:08:36.298Z,39.50
2019-02-22T20:12:39.614Z,35.67
2019-02-22T20:16:42.915Z,31.50
2019-02-22T20:20:46.212Z,31.53
2019-02-22T20:24:49.507Z,33.07
2019-02-22T20:28:53.124Z,30.87
2019-02-22T20:32:56.492Z,35.80
2019-02-22T20:37:00.249Z,32.70
2019-02-22T20:41:03.629Z,28.13
2019-02-22T20:45:07.206Z,32.50
2019-02-22T20:49:10.931Z,46.33
2019-02-22T20:53:14.241Z,37.37
2019-02-22T20:57:17.553Z,31.33
2019-02-22T21:01:21.024Z,34.70
2019-02-22T21:05:24.326Z,27.10
2019-02-22T21:09:27.886Z,35.13
2019-02-22T21:13:31.491Z,33.93
2019-02-22T21:17:35.039Z,31.13
2019-02-22T21:21:38.610Z,32.20
2019-02-22T21:25:42.630Z,30.23
2019-02-22T21:29:46.372Z,33.63
2019-02-22T21:33:49.674Z,34.70
2019-02-22T21:37:53.399Z,31.63
2019-02-22T21:41:56.955Z,30.97
2019-02-22T21:46:00.534Z,36.30
2019-02-22T21:50:04.170Z,31.80
2019-02-22T21:54:07.719Z,30.67
2019-02-22T21:58:11.455Z,34.87
2019-02-22T22:02:15.962Z,33.63
2019-02-22T22:06:19.251Z,32.03
2019-02-22T22:10:23.159Z,29.10
2019-02-22T22:14:27.211Z,32.63
2019-02-22T22:18:38.446Z,30.03
2019-02-22T22:22:36.282Z,30.07
2019-02-22T22:26:39.586Z,29.33
2019-02-22T22:30:43.149Z,30.30
2019-02-22T22:34:47.290Z,25.30
2019-02-22T22:38:50.579Z,29.33
2019-02-22T22:42:53.898Z,23.87
2019-02-22T22:46:57.638Z,24.37
2019-02-22T22:51:01.034Z,22.53
2019-02-22T22:55:04.879Z,25.77
2019-02-22T22:59:08.646Z,23.80
2019-02-22T23:03:12.074Z,23.53
2019-02-22T23:07:15.374Z,21.13
2019-02-22T23:11:18.667Z,24.17
2019-02-22T23:15:22.032Z,26.10
2019-02-22T23:19:25.322Z,23.37
2019-02-22T23:23:28.662Z,26.40
2019-02-22T23:27:31.945Z,27.20
2019-02-22T23:31:35.927Z,22.17
2019-02-22T23:35:39.651Z,23.83
2019-02-22T23:39:43.286Z,27.13
2019-02-22T23:43:46.654Z,24.10
2019-02-22T23:47:50.278Z,22.80
2019-02-22T23:51:53.586Z,26.67
2019-02-22T23:55:56.877Z,29.20
